CYWJ

Déline Airport

Déline, Northwest Territories, Canada
METAR CYWJ 242300Z 13008KT 20SM SCT035 BKN045 M03/M06 A2995 RMK SC3SC4 -1.2/-5.6/0/40 MUCH LOOSE LAST STFD OBS/NXT 251300UTC SLP160
Observed Flight Rules
Apr-24 @ 23:00 UTC (2 hours ago) Visual Flight Rules
Wind Visibility Clouds
130° at 8 knots 20 miles
  • Scattered at 3,500' AGL
  • Broken at 4,500' AGL
Temperatures Readings
Current -3°C / 27°F
Dewpoint -6°C / 21°F
Humidity 80%
Altimeter 29.95" Hg
Pressure 1016 hPa
Elevation 176
METAR CYWJ 242300Z 13008KT 20SM SCT035 BKN045 M03/M06 A2995 RMK SC3SC4 -1.2/-5.6/0/40 MUCH LOOSE LAST STFD OBS/NXT 251300UTC SLP160
Observed Flight Rules
Apr-24 @ 23:00 UTC
(2 hours ago)
VFR
Wind Visibility
130° at 8 knots 20 miles
Clouds
  • Scattered at 3,500' AGL
  • Broken at 4,500' AGL
Temperature Dewpoint
-3°C / 27°F -6°C / 21°F
Humidity Altimeter Pressure
80% 29.95" Hg 1016 hPa